Terminal Aerodrome Forecast
Issued by NWS Charleston, WV

Current Version | Previous Version | Graphics & Text | Print | Product List | Glossary On
Versions: 1 2 3 4 5 6 7 8 9 10 11 12 13 14 15 16 17 18 19 20 21 22 23 24 25 26 27 28 29 30 31
000
FTUS41 KRLX 021142
TAFBKW
TAF
KBKW 021142Z 0212/0312 00000KT 4SM -SHRA BKN035
     FM021300 25004KT P6SM VCSH BKN040
     FM021800 28005KT P6SM VCTS OVC035CB
     FM022200 21005KT P6SM OVC045
     FM030400 16004KT 3SM BR BKN008=

USA.gov is the U.S. government's official web portal to all federal, state and local government web resources and services.